sensor_id;sensor_type;location;lat;lon;timestamp;pressure;altitude;pressure_sealevel;temperature;humidity
52249;BME280;38541;48.130;8.378;2022-08-19T00:01:42;92529.75;;;17.72;83.45
52249;BME280;38541;48.130;8.378;2022-08-19T00:04:12;92530.84;;;17.71;83.10
52249;BME280;38541;48.130;8.378;2022-08-19T00:06:41;92524.63;;;17.66;83.45
52249;BME280;38541;48.130;8.378;2022-08-19T00:09:10;92528.53;;;17.69;83.71
52249;BME280;38541;48.130;8.378;2022-08-19T00:11:37;92526.03;;;17.73;83.62
52249;BME280;38541;48.130;8.378;2022-08-19T00:14:06;92531.66;;;17.71;83.25
52249;BME280;38541;48.130;8.378;2022-08-19T00:16:36;92531.97;;;17.69;83.56
52249;BME280;38541;48.130;8.378;2022-08-19T00:19:03;92526.81;;;17.73;83.40
52249;BME280;38541;48.130;8.378;2022-08-19T00:21:29;92519.00;;;17.77;83.15
52249;BME280;38541;48.130;8.378;2022-08-19T00:23:57;92530.72;;;17.76;83.43
52249;BME280;38541;48.130;8.378;2022-08-19T00:26:26;92526.97;;;17.77;83.03
52249;BME280;38541;48.130;8.378;2022-08-19T00:28:53;92534.94;;;17.77;83.35
52249;BME280;38541;48.130;8.378;2022-08-19T00:31:20;92529.31;;;17.78;83.29
52249;BME280;38541;48.130;8.378;2022-08-19T00:33:47;92530.09;;;17.79;83.15
52249;BME280;38541;48.130;8.378;2022-08-19T00:36:17;92529.31;;;17.78;83.30
52249;BME280;38541;48.130;8.378;2022-08-19T00:38:43;92530.25;;;17.74;83.50
52249;BME280;38541;48.130;8.378;2022-08-19T00:41:15;92524.44;;;17.72;83.62
52249;BME280;38541;48.130;8.378;2022-08-19T00:43:43;92527.59;;;17.74;83.72
52249;BME280;38541;48.130;8.378;2022-08-19T00:46:10;92519.94;;;17.72;83.81
52249;BME280;38541;48.130;8.378;2022-08-19T00:48:37;92526.81;;;17.73;83.69
52249;BME280;38541;48.130;8.378;2022-08-19T00:53:33;92517.56;;;17.71;83.62
52249;BME280;38541;48.130;8.378;2022-08-19T00:56:02;92517.72;;;17.65;83.55
52249;BME280;38541;48.130;8.378;2022-08-19T00:58:32;92507.09;;;17.65;84.06
52249;BME280;38541;48.130;8.378;2022-08-19T01:01:00;92509.75;;;17.65;84.15
52249;BME280;38541;48.130;8.378;2022-08-19T01:03:28;92511.50;;;17.61;84.22
52249;BME280;38541;48.130;8.378;2022-08-19T01:06:15;92505.06;;;17.62;84.16
52249;BME280;38541;48.130;8.378;2022-08-19T01:08:46;92503.53;;;17.61;84.17
52249;BME280;38541;48.130;8.378;2022-08-19T01:11:16;92498.22;;;17.61;84.09
52249;BME280;38541;48.130;8.378;2022-08-19T01:13:43;92509.28;;;17.63;83.97
52249;BME280;38541;48.130;8.378;2022-08-19T01:16:16;92519.63;;;17.65;83.97
52249;BME280;38541;48.130;8.378;2022-08-19T01:18:43;92507.44;;;17.64;83.83
52249;BME280;38541;48.130;8.378;2022-08-19T01:21:22;92510.56;;;17.66;84.13
52249;BME280;38541;48.130;8.378;2022-08-19T01:23:50;92513.34;;;17.69;84.04
52249;BME280;38541;48.130;8.378;2022-08-19T01:26:21;92507.56;;;17.67;83.76
52249;BME280;38541;48.130;8.378;2022-08-19T01:28:50;92506.19;;;17.70;83.74
52249;BME280;38541;48.130;8.378;2022-08-19T01:31:22;92507.44;;;17.73;83.80
52249;BME280;38541;48.130;8.378;2022-08-19T01:33:54;92511.03;;;17.77;83.60
52249;BME280;38541;48.130;8.378;2022-08-19T01:38:52;92510.41;;;17.80;83.49
52249;BME280;38541;48.130;8.378;2022-08-19T01:41:18;92510.41;;;17.80;83.20
52249;BME280;38541;48.130;8.378;2022-08-19T01:43:45;92505.72;;;17.77;83.07
52249;BME280;38541;48.130;8.378;2022-08-19T01:46:32;92500.88;;;17.79;82.84
52249;BME280;38541;48.130;8.378;2022-08-19T01:49:00;92493.53;;;17.76;82.68
52249;BME280;38541;48.130;8.378;2022-08-19T01:51:27;92491.00;;;17.71;83.26
52249;BME280;38541;48.130;8.378;2022-08-19T01:54:04;92491.16;;;17.65;83.60
52249;BME280;38541;48.130;8.378;2022-08-19T01:56:30;92488.34;;;17.62;83.54
52249;BME280;38541;48.130;8.378;2022-08-19T01:59:00;92477.72;;;17.62;83.39
52249;BME280;38541;48.130;8.378;2022-08-19T02:01:28;92484.28;;;17.64;83.32
52249;BME280;38541;48.130;8.378;2022-08-19T02:03:58;92475.38;;;17.60;83.19
52249;BME280;38541;48.130;8.378;2022-08-19T02:06:27;92488.69;;;17.60;83.17
52249;BME280;38541;48.130;8.378;2022-08-19T02:08:54;92485.22;;;17.60;83.38
52249;BME280;38541;48.130;8.378;2022-08-19T02:11:34;92480.69;;;17.51;83.35
52249;BME280;38541;48.130;8.378;2022-08-19T02:14:04;92485.72;;;17.53;83.41
52249;BME280;38541;48.130;8.378;2022-08-19T02:16:32;92484.75;;;17.49;83.50
52249;BME280;38541;48.130;8.378;2022-08-19T02:18:59;92476.78;;;17.49;83.42
52249;BME280;38541;48.130;8.378;2022-08-19T02:21:29;92483.19;;;17.48;83.24
52249;BME280;38541;48.130;8.378;2022-08-19T02:23:56;92480.06;;;17.46;83.22
52249;BME280;38541;48.130;8.378;2022-08-19T02:26:23;92485.38;;;17.46;83.29
52249;BME280;38541;48.130;8.378;2022-08-19T02:28:52;92484.59;;;17.45;83.29
52249;BME280;38541;48.130;8.378;2022-08-19T02:31:21;92479.44;;;17.40;82.90
52249;BME280;38541;48.130;8.378;2022-08-19T02:33:51;92468.34;;;17.38;82.85
52249;BME280;38541;48.130;8.378;2022-08-19T02:36:22;92458.81;;;17.37;82.94
52249;BME280;38541;48.130;8.378;2022-08-19T02:38:50;92461.28;;;17.33;83.55
52249;BME280;38541;48.130;8.378;2022-08-19T02:41:26;92458.03;;;17.36;82.97
52249;BME280;38541;48.130;8.378;2022-08-19T02:43:54;92453.81;;;17.35;83.06
52249;BME280;38541;48.130;8.378;2022-08-19T02:46:45;92458.97;;;17.32;83.00
52249;BME280;38541;48.130;8.378;2022-08-19T02:49:12;92454.28;;;17.29;83.00
52249;BME280;38541;48.130;8.378;2022-08-19T02:51:41;92456.75;;;17.25;82.99
52249;BME280;38541;48.130;8.378;2022-08-19T02:54:09;92463.16;;;17.24;83.08
52249;BME280;38541;48.130;8.378;2022-08-19T02:56:38;92474.72;;;17.28;83.26
52249;BME280;38541;48.130;8.378;2022-08-19T02:59:06;92485.22;;;17.24;82.79
52249;BME280;38541;48.130;8.378;2022-08-19T03:01:38;92485.34;;;17.28;82.92
52249;BME280;38541;48.130;8.378;2022-08-19T03:04:33;92479.41;;;17.31;82.45
52249;BME280;38541;48.130;8.378;2022-08-19T03:07:00;92479.88;;;17.33;82.32
52249;BME280;38541;48.130;8.378;2022-08-19T03:09:36;92478.81;;;17.34;82.11
52249;BME280;38541;48.130;8.378;2022-08-19T03:12:04;92478.03;;;17.34;82.28
52249;BME280;38541;48.130;8.378;2022-08-19T03:14:32;92488.47;;;17.30;82.23
52249;BME280;38541;48.130;8.378;2022-08-19T03:16:59;92486.91;;;17.29;82.18
52249;BME280;38541;48.130;8.378;2022-08-19T03:19:26;92499.88;;;17.31;82.34
52249;BME280;38541;48.130;8.378;2022-08-19T03:21:53;92504.56;;;17.34;82.01
52249;BME280;38541;48.130;8.378;2022-08-19T03:24:20;92501.75;;;17.30;82.23
52249;BME280;38541;48.130;8.378;2022-08-19T03:26:49;92498.16;;;17.26;82.30
52249;BME280;38541;48.130;8.378;2022-08-19T03:29:18;92494.09;;;17.20;82.31
52249;BME280;38541;48.130;8.378;2022-08-19T03:31:56;92490.00;;;17.14;82.93
52249;BME280;38541;48.130;8.378;2022-08-19T03:34:26;92487.97;;;17.10;83.04
52249;BME280;38541;48.130;8.378;2022-08-19T03:36:54;92496.88;;;17.15;82.98
52249;BME280;38541;48.130;8.378;2022-08-19T03:39:22;92495.31;;;17.14;83.04
52249;BME280;38541;48.130;8.378;2022-08-19T03:41:51;92511.22;;;17.14;82.96
52249;BME280;38541;48.130;8.378;2022-08-19T03:44:37;92505.34;;;17.17;83.04
52249;BME280;38541;48.130;8.378;2022-08-19T03:47:07;92502.69;;;17.17;82.89
52249;BME280;38541;48.130;8.378;2022-08-19T03:49:34;92505.34;;;17.17;82.72
52249;BME280;38541;48.130;8.378;2022-08-19T03:52:03;92502.53;;;17.22;83.07
52249;BME280;38541;48.130;8.378;2022-08-19T03:54:31;92506.28;;;17.21;82.80
52249;BME280;38541;48.130;8.378;2022-08-19T03:56:58;92507.38;;;17.20;82.69
52249;BME280;38541;48.130;8.378;2022-08-19T03:59:29;92515.78;;;17.13;82.86
52249;BME280;38541;48.130;8.378;2022-08-19T04:01:58;92518.72;;;17.11;83.12
52249;BME280;38541;48.130;8.378;2022-08-19T04:04:26;92514.38;;;17.16;83.00
52249;BME280;38541;48.130;8.378;2022-08-19T04:06:55;92510.16;;;17.15;82.81
52249;BME280;38541;48.130;8.378;2022-08-19T04:09:22;92520.28;;;17.13;82.62
52249;BME280;38541;48.130;8.378;2022-08-19T04:11:51;92513.88;;;17.14;82.67
52249;BME280;38541;48.130;8.378;2022-08-19T04:14:26;92514.97;;;17.13;82.79
52249;BME280;38541;48.130;8.378;2022-08-19T04:16:53;92518.72;;;17.11;83.03
52249;BME280;38541;48.130;8.378;2022-08-19T04:19:19;92514.22;;;17.12;83.02
52249;BME280;38541;48.130;8.378;2022-08-19T04:21:48;92514.50;;;17.10;82.78
52249;BME280;38541;48.130;8.378;2022-08-19T04:24:16;92517.16;;;17.10;82.78
52249;BME280;38541;48.130;8.378;2022-08-19T04:26:43;92506.06;;;17.08;82.54
52249;BME280;38541;48.130;8.378;2022-08-19T04:29:17;92504.97;;;17.09;82.92
52249;BME280;38541;48.130;8.378;2022-08-19T04:31:45;92508.72;;;17.08;83.00
52249;BME280;38541;48.130;8.378;2022-08-19T04:34:15;92501.38;;;17.05;82.92
52249;BME280;38541;48.130;8.378;2022-08-19T04:36:44;92509.97;;;17.02;83.03
52249;BME280;38541;48.130;8.378;2022-08-19T04:39:16;92503.25;;;17.05;82.96
52249;BME280;38541;48.130;8.378;2022-08-19T04:41:44;92503.81;;;16.93;83.12
52249;BME280;38541;48.130;8.378;2022-08-19T04:44:32;92496.94;;;16.92;83.14
52249;BME280;38541;48.130;8.378;2022-08-19T04:47:02;92494.28;;;16.92;83.57
52249;BME280;38541;48.130;8.378;2022-08-19T04:49:36;92497.25;;;16.90;83.30
52249;BME280;38541;48.130;8.378;2022-08-19T04:52:03;92500.53;;;16.87;83.96
52249;BME280;38541;48.130;8.378;2022-08-19T04:54:29;92497.88;;;16.87;83.56
52249;BME280;38541;48.130;8.378;2022-08-19T04:57:06;92501.13;;;16.84;84.08
52249;BME280;38541;48.130;8.378;2022-08-19T04:59:37;92510.34;;;16.87;83.70
52249;BME280;38541;48.130;8.378;2022-08-19T05:02:04;92514.09;;;16.86;83.91
52249;BME280;38541;48.130;8.378;2022-08-19T05:04:30;92511.16;;;16.87;83.85
52249;BME280;38541;48.130;8.378;2022-08-19T05:07:00;92522.06;;;16.86;84.00
52249;BME280;38541;48.130;8.378;2022-08-19T05:09:30;92525.66;;;16.90;83.92
52249;BME280;38541;48.130;8.378;2022-08-19T05:12:17;92528.31;;;16.90;83.60
52249;BME280;38541;48.130;8.378;2022-08-19T05:14:45;92530.34;;;16.93;83.71
52249;BME280;38541;48.130;8.378;2022-08-19T05:17:14;92530.34;;;16.93;84.05
52249;BME280;38541;48.130;8.378;2022-08-19T05:20:01;92526.75;;;16.89;83.97
52249;BME280;38541;48.130;8.378;2022-08-19T05:22:47;92533.47;;;16.95;83.52
52249;BME280;38541;48.130;8.378;2022-08-19T05:25:17;92534.09;;;16.92;83.73
52249;BME280;38541;48.130;8.378;2022-08-19T05:27:45;92536.59;;;16.88;83.96
52249;BME280;38541;48.130;8.378;2022-08-19T05:30:12;92537.34;;;16.89;84.01
52249;BME280;38541;48.130;8.378;2022-08-19T05:32:39;92546.41;;;16.88;84.21
52249;BME280;38541;48.130;8.378;2022-08-19T05:35:07;92542.06;;;16.92;84.10
52249;BME280;38541;48.130;8.378;2022-08-19T05:37:33;92546.41;;;16.88;83.79
52249;BME280;38541;48.130;8.378;2022-08-19T05:40:00;92545.66;;;16.87;83.90
52249;BME280;38541;48.130;8.378;2022-08-19T05:42:27;92545.66;;;16.87;83.98
52249;BME280;38541;48.130;8.378;2022-08-19T05:44:54;92547.34;;;16.92;84.07
52249;BME280;38541;48.130;8.378;2022-08-19T05:47:23;92550.19;;;16.95;83.79
52249;BME280;38541;48.130;8.378;2022-08-19T05:49:49;92554.13;;;16.98;83.72
52249;BME280;38541;48.130;8.378;2022-08-19T05:52:17;92556.19;;;17.01;83.52
52249;BME280;38541;48.130;8.378;2022-08-19T05:54:45;92546.94;;;16.99;83.58
52249;BME280;38541;48.130;8.378;2022-08-19T05:57:18;92554.63;;;17.00;83.77
52249;BME280;38541;48.130;8.378;2022-08-19T05:59:45;92559.94;;;17.00;83.71
52249;BME280;38541;48.130;8.378;2022-08-19T06:02:14;92564.13;;;17.01;83.67
52249;BME280;38541;48.130;8.378;2022-08-19T06:04:41;92568.97;;;16.99;83.66
52249;BME280;38541;48.130;8.378;2022-08-19T06:07:10;92579.28;;;17.01;83.40
52249;BME280;38541;48.130;8.378;2022-08-19T06:09:38;92581.63;;;17.02;83.51
52249;BME280;38541;48.130;8.378;2022-08-19T06:12:05;92581.16;;;17.00;83.45
52249;BME280;38541;48.130;8.378;2022-08-19T06:14:34;92592.72;;;17.04;83.13
52249;BME280;38541;48.130;8.378;2022-08-19T06:17:05;92597.41;;;17.07;83.46
52249;BME280;38541;48.130;8.378;2022-08-19T06:19:33;92598.97;;;17.49;81.86
52249;BME280;38541;48.130;8.378;2022-08-19T06:22:06;92596.78;;;17.60;80.02
52249;BME280;38541;48.130;8.378;2022-08-19T06:24:32;92591.97;;;17.71;80.17
52249;BME280;38541;48.130;8.378;2022-08-19T06:27:01;92592.09;;;17.57;80.84
52249;BME280;38541;48.130;8.378;2022-08-19T06:29:28;92598.41;;;17.78;80.21
52249;BME280;38541;48.130;8.378;2022-08-19T06:31:58;92591.69;;;17.90;79.07
52249;BME280;38541;48.130;8.378;2022-08-19T06:34:27;92594.19;;;17.86;78.79
52249;BME280;38541;48.130;8.378;2022-08-19T06:36:55;92586.06;;;17.74;78.96
52249;BME280;38541;48.130;8.378;2022-08-19T06:39:25;92591.22;;;17.79;79.35
52249;BME280;38541;48.130;8.378;2022-08-19T06:41:56;92587.63;;;17.75;79.45
52249;BME280;38541;48.130;8.378;2022-08-19T06:44:30;92577.72;;;17.49;80.25
52249;BME280;38541;48.130;8.378;2022-08-19T06:47:10;92574.19;;;17.89;79.09
52249;BME280;38541;48.130;8.378;2022-08-19T06:49:48;92577.88;;;17.44;80.60
52249;BME280;38541;48.130;8.378;2022-08-19T06:52:16;92574.06;;;17.27;80.95
52249;BME280;38541;48.130;8.378;2022-08-19T06:54:43;92574.44;;;17.03;82.39
52249;BME280;38541;48.130;8.378;2022-08-19T06:57:21;92573.97;;;17.01;82.63
52249;BME280;38541;48.130;8.378;2022-08-19T06:59:48;92572.56;;;17.03;82.78
52249;BME280;38541;48.130;8.378;2022-08-19T07:02:15;92573.66;;;17.02;82.92
52249;BME280;38541;48.130;8.378;2022-08-19T07:04:46;92568.34;;;17.02;82.72
52249;BME280;38541;48.130;8.378;2022-08-19T07:07:18;92575.06;;;17.00;82.56
52249;BME280;38541;48.130;8.378;2022-08-19T07:09:48;92582.31;;;16.94;82.34
52249;BME280;38541;48.130;8.378;2022-08-19T07:12:28;92582.81;;;16.96;82.25
52249;BME280;38541;48.130;8.378;2022-08-19T07:14:58;92580.53;;;17.03;81.95
52249;BME280;38541;48.130;8.378;2022-08-19T07:17:25;92588.03;;;17.01;82.69
52249;BME280;38541;48.130;8.378;2022-08-19T07:19:52;92583.38;;;17.07;82.67
52249;BME280;38541;48.130;8.378;2022-08-19T07:22:20;92592.44;;;17.15;82.22
52249;BME280;38541;48.130;8.378;2022-08-19T07:24:50;92596.03;;;17.10;81.91
52249;BME280;38541;48.130;8.378;2022-08-19T07:27:18;92589.00;;;17.14;81.50
52249;BME280;38541;48.130;8.378;2022-08-19T07:29:52;92591.50;;;17.10;81.77
52249;BME280;38541;48.130;8.378;2022-08-19T07:32:25;92597.22;;;17.04;81.31
52249;BME280;38541;48.130;8.378;2022-08-19T07:34:53;92596.19;;;17.14;82.21
52249;BME280;38541;48.130;8.378;2022-08-19T07:37:22;92589.31;;;17.13;81.30
52249;BME280;38541;48.130;8.378;2022-08-19T07:39:48;92591.84;;;17.18;81.16
52249;BME280;38541;48.130;8.378;2022-08-19T07:42:15;92590.28;;;17.17;81.09
52249;BME280;38541;48.130;8.378;2022-08-19T07:44:42;92597.00;;;17.23;81.08
52249;BME280;38541;48.130;8.378;2022-08-19T07:47:17;92593.00;;;17.34;80.67
52249;BME280;38541;48.130;8.378;2022-08-19T07:50:07;92594.41;;;17.40;80.34
52249;BME280;38541;48.130;8.378;2022-08-19T07:52:34;92595.84;;;17.56;80.28
52249;BME280;38541;48.130;8.378;2022-08-19T07:55:04;92607.41;;;17.60;79.94
52249;BME280;38541;48.130;8.378;2022-08-19T07:57:30;92608.72;;;17.71;80.26
52249;BME280;38541;48.130;8.378;2022-08-19T07:59:58;92607.00;;;17.75;79.52
52249;BME280;38541;48.130;8.378;2022-08-19T08:02:24;92612.31;;;17.84;79.21
52249;BME280;38541;48.130;8.378;2022-08-19T08:04:51;92616.69;;;17.80;79.14
52249;BME280;38541;48.130;8.378;2022-08-19T08:07:36;92616.22;;;17.69;78.91
52249;BME280;38541;48.130;8.378;2022-08-19T08:10:21;92617.78;;;17.70;79.91
52249;BME280;38541;48.130;8.378;2022-08-19T08:12:50;92623.38;;;17.68;79.03
52249;BME280;38541;48.130;8.378;2022-08-19T08:15:36;92626.50;;;17.62;79.23
52249;BME280;38541;48.130;8.378;2022-08-19T08:18:09;92627.28;;;17.62;79.34
52249;BME280;38541;48.130;8.378;2022-08-19T08:20:35;92624.16;;;17.60;79.84
52249;BME280;38541;48.130;8.378;2022-08-19T08:23:02;92620.88;;;17.63;78.90
52249;BME280;38541;48.130;8.378;2022-08-19T08:25:48;92616.97;;;17.69;78.99
52249;BME280;38541;48.130;8.378;2022-08-19T08:28:18;92614.47;;;17.64;78.71
52249;BME280;38541;48.130;8.378;2022-08-19T08:30:47;92614.66;;;17.77;79.09
52249;BME280;38541;48.130;8.378;2022-08-19T08:33:23;92621.09;;;17.85;78.79
52249;BME280;38541;48.130;8.378;2022-08-19T08:36:07;92625.94;;;18.00;78.07
52249;BME280;38541;48.130;8.378;2022-08-19T08:38:34;92641.88;;;18.00;77.68
52249;BME280;38541;48.130;8.378;2022-08-19T08:41:20;92639.84;;;17.97;78.07
52249;BME280;38541;48.130;8.378;2022-08-19T08:43:51;92635.50;;;17.92;77.53
52249;BME280;38541;48.130;8.378;2022-08-19T08:46:24;92643.47;;;17.92;77.88
52249;BME280;38541;48.130;8.378;2022-08-19T08:49:18;92651.56;;;17.87;77.98
52249;BME280;38541;48.130;8.378;2022-08-19T08:51:51;92647.03;;;17.79;78.01
52249;BME280;38541;48.130;8.378;2022-08-19T08:54:31;92651.22;;;17.71;77.47
52249;BME280;38541;48.130;8.378;2022-08-19T08:57:04;92661.34;;;17.60;78.08
52249;BME280;38541;48.130;8.378;2022-08-19T08:59:37;92655.84;;;17.57;78.36
52249;BME280;38541;48.130;8.378;2022-08-19T09:02:05;92666.50;;;17.65;78.64
52249;BME280;38541;48.130;8.378;2022-08-19T09:04:34;92663.38;;;17.63;78.50
52249;BME280;38541;48.130;8.378;2022-08-19T09:10:10;92667.28;;;17.57;78.64
52249;BME280;38541;48.130;8.378;2022-08-19T09:13:04;92667.13;;;17.62;79.13
52249;BME280;38541;48.130;8.378;2022-08-19T09:15:40;92662.63;;;17.63;78.97
52249;BME280;38541;48.130;8.378;2022-08-19T09:18:09;92671.78;;;17.57;78.65
52249;BME280;38541;48.130;8.378;2022-08-19T09:20:45;92675.41;;;17.61;78.67
52249;BME280;38541;48.130;8.378;2022-08-19T09:23:14;92676.66;;;17.63;78.39
52249;BME280;38541;48.130;8.378;2022-08-19T09:25:40;92677.13;;;17.57;78.33
52249;BME280;38541;48.130;8.378;2022-08-19T09:28:07;92674.78;;;17.55;78.73
52249;BME280;38541;48.130;8.378;2022-08-19T09:30:48;92672.41;;;17.53;78.68
52249;BME280;38541;48.130;8.378;2022-08-19T09:33:14;92674.09;;;17.40;79.06
52249;BME280;38541;48.130;8.378;2022-08-19T09:35:42;92672.19;;;17.41;78.97
52249;BME280;38541;48.130;8.378;2022-08-19T09:38:18;92663.47;;;17.40;79.13
52249;BME280;38541;48.130;8.378;2022-08-19T09:40:45;92676.88;;;17.35;79.53
52249;BME280;38541;48.130;8.378;2022-08-19T09:43:11;92672.81;;;17.38;79.11
52249;BME280;38541;48.130;8.378;2022-08-19T09:45:39;92677.22;;;17.43;79.42
52249;BME280;38541;48.130;8.378;2022-08-19T09:48:05;92680.16;;;17.41;79.05
52249;BME280;38541;48.130;8.378;2022-08-19T09:50:32;92685.19;;;17.43;79.09
52249;BME280;38541;48.130;8.378;2022-08-19T09:53:00;92682.34;;;17.39;79.26
52249;BME280;38541;48.130;8.378;2022-08-19T09:55:26;92686.94;;;17.47;78.65
52249;BME280;38541;48.130;8.378;2022-08-19T09:58:01;92689.50;;;17.30;79.85
52249;BME280;38541;48.130;8.378;2022-08-19T10:00:29;92692.13;;;17.21;79.71
52249;BME280;38541;48.130;8.378;2022-08-19T10:02:57;92693.69;;;17.22;79.83
52249;BME280;38541;48.130;8.378;2022-08-19T10:05:24;92693.06;;;17.25;79.66
52249;BME280;38541;48.130;8.378;2022-08-19T10:08:09;92689.66;;;17.33;79.69
52249;BME280;38541;48.130;8.378;2022-08-19T10:10:40;92693.59;;;17.36;79.63
52249;BME280;38541;48.130;8.378;2022-08-19T10:13:15;92692.69;;;17.40;79.16
52249;BME280;38541;48.130;8.378;2022-08-19T10:15:43;92695.84;;;17.51;79.81
52249;BME280;38541;48.130;8.378;2022-08-19T10:18:14;92687.59;;;17.53;79.36
52249;BME280;38541;48.130;8.378;2022-08-19T10:20:40;92694.00;;;17.61;78.87
52249;BME280;38541;48.130;8.378;2022-08-19T10:23:09;92693.41;;;17.64;78.57
52249;BME280;38541;48.130;8.378;2022-08-19T10:25:35;92693.56;;;17.67;78.85
52249;BME280;38541;48.130;8.378;2022-08-19T10:28:04;92692.16;;;17.70;78.50
52249;BME280;38541;48.130;8.378;2022-08-19T10:30:36;92696.88;;;17.73;78.16
52249;BME280;38541;48.130;8.378;2022-08-19T10:33:03;92696.72;;;17.78;78.28
52249;BME280;38541;48.130;8.378;2022-08-19T10:35:36;92694.69;;;17.75;78.31
52249;BME280;38541;48.130;8.378;2022-08-19T10:38:22;92700.44;;;17.68;77.13
52249;BME280;38541;48.130;8.378;2022-08-19T10:41:05;92699.31;;;17.61;78.29
52249;BME280;38541;48.130;8.378;2022-08-19T10:43:32;92706.38;;;17.65;78.41
52249;BME280;38541;48.130;8.378;2022-08-19T10:46:02;92703.06;;;17.60;78.32
52249;BME280;38541;48.130;8.378;2022-08-19T10:48:35;92704.19;;;17.67;78.55
52249;BME280;38541;48.130;8.378;2022-08-19T10:51:03;92702.97;;;17.74;77.51
52249;BME280;38541;48.130;8.378;2022-08-19T10:53:49;92707.25;;;17.92;77.65
52249;BME280;38541;48.130;8.378;2022-08-19T10:56:17;92712.56;;;17.92;76.83
52249;BME280;38541;48.130;8.378;2022-08-19T10:59:03;92703.50;;;17.93;77.25
52249;BME280;38541;48.130;8.378;2022-08-19T11:01:31;92705.81;;;17.86;76.87
52249;BME280;38541;48.130;8.378;2022-08-19T11:04:04;92706.16;;;17.93;77.52
52249;BME280;38541;48.130;8.378;2022-08-19T11:06:31;92700.75;;;18.16;76.08
52249;BME280;38541;48.130;8.378;2022-08-19T11:08:58;92701.72;;;18.20;76.60
52249;BME280;38541;48.130;8.378;2022-08-19T11:11:26;92700.63;;;18.30;76.46
52249;BME280;38541;48.130;8.378;2022-08-19T11:13:54;92706.75;;;18.39;74.95
52249;BME280;38541;48.130;8.378;2022-08-19T11:16:25;92709.25;;;18.62;75.84
52249;BME280;38541;48.130;8.378;2022-08-19T11:18:54;92700.94;;;18.81;74.35
52249;BME280;38541;48.130;8.378;2022-08-19T11:21:30;92702.03;;;19.07;74.04
52249;BME280;38541;48.130;8.378;2022-08-19T11:24:03;92706.44;;;19.12;72.63
52249;BME280;38541;48.130;8.378;2022-08-19T11:26:31;92704.66;;;19.33;72.20
52249;BME280;38541;48.130;8.378;2022-08-19T11:28:58;92707.06;;;19.08;71.95
52249;BME280;38541;48.130;8.378;2022-08-19T11:31:29;92712.88;;;19.10;72.29
52249;BME280;38541;48.130;8.378;2022-08-19T11:33:58;92708.47;;;19.15;72.72
52249;BME280;38541;48.130;8.378;2022-08-19T11:36:26;92716.84;;;19.52;71.82
52249;BME280;38541;48.130;8.378;2022-08-19T11:38:54;92711.28;;;19.09;72.25
52249;BME280;38541;48.130;8.378;2022-08-19T11:41:22;92709.88;;;19.12;72.80
52249;BME280;38541;48.130;8.378;2022-08-19T11:43:51;92712.38;;;19.26;71.43
52249;BME280;38541;48.130;8.378;2022-08-19T11:46:19;92717.69;;;19.26;70.38
52249;BME280;38541;48.130;8.378;2022-08-19T11:48:46;92718.00;;;19.24;70.03
52249;BME280;38541;48.130;8.378;2022-08-19T11:51:15;92702.31;;;19.32;71.10
52249;BME280;38541;48.130;8.378;2022-08-19T11:53:42;92707.00;;;19.44;70.58
52249;BME280;38541;48.130;8.378;2022-08-19T11:56:09;92710.44;;;19.35;70.07
52249;BME280;38541;48.130;8.378;2022-08-19T11:58:36;92718.44;;;19.35;70.89
52249;BME280;38541;48.130;8.378;2022-08-19T12:01:08;92705.16;;;19.27;70.93
52249;BME280;38541;48.130;8.378;2022-08-19T12:03:35;92701.69;;;19.35;71.47
52249;BME280;38541;48.130;8.378;2022-08-19T12:06:10;92711.56;;;19.34;70.14
52249;BME280;38541;48.130;8.378;2022-08-19T12:08:40;92713.56;;;19.37;70.95
52249;BME280;38541;48.130;8.378;2022-08-19T12:11:07;92714.69;;;19.36;70.76
52249;BME280;38541;48.130;8.378;2022-08-19T12:13:37;92720.94;;;19.41;70.67
52249;BME280;38541;48.130;8.378;2022-08-19T12:16:10;92710.28;;;19.41;70.58
52249;BME280;38541;48.130;8.378;2022-08-19T12:18:39;92712.16;;;19.40;70.25
52249;BME280;38541;48.130;8.378;2022-08-19T12:21:09;92720.16;;;19.40;71.00
52249;BME280;38541;48.130;8.378;2022-08-19T12:23:37;92717.81;;;19.38;70.57
52249;BME280;38541;48.130;8.378;2022-08-19T12:26:04;92709.03;;;19.47;70.65
52249;BME280;38541;48.130;8.378;2022-08-19T12:28:31;92713.91;;;19.36;70.72
52249;BME280;38541;48.130;8.378;2022-08-19T12:30:58;92710.78;;;19.34;70.53
52249;BME280;38541;48.130;8.378;2022-08-19T12:33:25;92710.63;;;19.30;69.97
52249;BME280;38541;48.130;8.378;2022-08-19T12:35:54;92714.72;;;19.19;70.63
52249;BME280;38541;48.130;8.378;2022-08-19T12:38:21;92708.00;;;19.04;70.68
52249;BME280;38541;48.130;8.378;2022-08-19T12:40:50;92707.69;;;19.14;70.50
52249;BME280;38541;48.130;8.378;2022-08-19T12:43:22;92705.78;;;19.15;70.29
52249;BME280;38541;48.130;8.378;2022-08-19T12:45:49;92713.31;;;19.21;70.22
52249;BME280;38541;48.130;8.378;2022-08-19T12:48:15;92713.91;;;19.36;69.34
52249;BME280;38541;48.130;8.378;2022-08-19T12:50:59;92717.53;;;19.22;68.51
52249;BME280;38541;48.130;8.378;2022-08-19T12:53:25;92720.69;;;19.16;68.38
52249;BME280;38541;48.130;8.378;2022-08-19T12:55:56;92721.28;;;19.30;68.85
52249;BME280;38541;48.130;8.378;2022-08-19T12:58:23;92719.09;;;19.32;68.13
52249;BME280;38541;48.130;8.378;2022-08-19T13:00:52;92730.03;;;19.39;68.42
52249;BME280;38541;48.130;8.378;2022-08-19T13:03:20;92720.16;;;19.40;68.08
52249;BME280;38541;48.130;8.378;2022-08-19T13:05:50;92722.16;;;19.52;68.00
52249;BME280;38541;48.130;8.378;2022-08-19T13:08:17;92722.97;;;19.44;66.93
52249;BME280;38541;48.130;8.378;2022-08-19T13:10:43;92710.28;;;19.41;65.72
52249;BME280;38541;48.130;8.378;2022-08-19T13:13:10;92721.41;;;19.43;66.67
52249;BME280;38541;48.130;8.378;2022-08-19T13:15:41;92719.25;;;19.36;66.29
52249;BME280;38541;48.130;8.378;2022-08-19T13:18:09;92727.69;;;19.38;65.52
52249;BME280;38541;48.130;8.378;2022-08-19T13:20:38;92717.47;;;19.49;66.80
52249;BME280;38541;48.130;8.378;2022-08-19T13:23:07;92713.47;;;19.73;66.15
52249;BME280;38541;48.130;8.378;2022-08-19T13:25:35;92711.88;;;19.80;66.09